sensor_id;sensor_type;location;lat;lon;timestamp;P1;durP1;ratioP1;P2;durP2;ratioP2
51248;SDS011;39642;47.556;18.728;2023-04-08T00:01:08;13.43;;;6.50;;
51248;SDS011;39642;47.556;18.728;2023-04-08T00:03:34;13.43;;;6.05;;
51248;SDS011;39642;47.556;18.728;2023-04-08T00:06:00;12.77;;;6.10;;
51248;SDS011;39642;47.556;18.728;2023-04-08T00:08:27;13.32;;;6.95;;
51248;SDS011;39642;47.556;18.728;2023-04-08T00:10:53;12.25;;;6.07;;
51248;SDS011;39642;47.556;18.728;2023-04-08T00:13:19;12.45;;;6.18;;
51248;SDS011;39642;47.556;18.728;2023-04-08T00:15:45;12.20;;;5.90;;
51248;SDS011;39642;47.556;18.728;2023-04-08T00:18:12;12.65;;;5.97;;
51248;SDS011;39642;47.556;18.728;2023-04-08T00:20:41;12.32;;;5.93;;
51248;SDS011;39642;47.556;18.728;2023-04-08T00:23:07;12.88;;;6.15;;
51248;SDS011;39642;47.556;18.728;2023-04-08T00:25:33;13.05;;;6.15;;
51248;SDS011;39642;47.556;18.728;2023-04-08T00:27:59;12.25;;;5.75;;
51248;SDS011;39642;47.556;18.728;2023-04-08T00:30:25;13.65;;;6.37;;
51248;SDS011;39642;47.556;18.728;2023-04-08T00:32:53;12.73;;;5.68;;
51248;SDS011;39642;47.556;18.728;2023-04-08T00:35:19;12.57;;;5.78;;
51248;SDS011;39642;47.556;18.728;2023-04-08T00:37:45;12.32;;;5.57;;
51248;SDS011;39642;47.556;18.728;2023-04-08T00:40:12;12.32;;;5.75;;
51248;SDS011;39642;47.556;18.728;2023-04-08T00:42:38;11.50;;;5.43;;
51248;SDS011;39642;47.556;18.728;2023-04-08T00:45:04;12.25;;;5.70;;
51248;SDS011;39642;47.556;18.728;2023-04-08T00:47:30;12.55;;;5.95;;
51248;SDS011;39642;47.556;18.728;2023-04-08T00:49:56;12.15;;;5.70;;
51248;SDS011;39642;47.556;18.728;2023-04-08T00:52:22;11.50;;;5.57;;
51248;SDS011;39642;47.556;18.728;2023-04-08T00:54:48;13.93;;;6.40;;
51248;SDS011;39642;47.556;18.728;2023-04-08T00:57:14;12.50;;;5.95;;
51248;SDS011;39642;47.556;18.728;2023-04-08T00:59:40;12.48;;;5.75;;
51248;SDS011;39642;47.556;18.728;2023-04-08T01:02:14;11.43;;;5.62;;
51248;SDS011;39642;47.556;18.728;2023-04-08T01:05:04;11.95;;;5.40;;
51248;SDS011;39642;47.556;18.728;2023-04-08T01:07:37;11.93;;;5.57;;
51248;SDS011;39642;47.556;18.728;2023-04-08T01:12:47;12.85;;;5.75;;
51248;SDS011;39642;47.556;18.728;2023-04-08T01:15:16;13.05;;;5.87;;
51248;SDS011;39642;47.556;18.728;2023-04-08T01:17:42;12.82;;;5.85;;
51248;SDS011;39642;47.556;18.728;2023-04-08T01:20:10;11.85;;;5.40;;
51248;SDS011;39642;47.556;18.728;2023-04-08T01:22:57;11.85;;;5.25;;
51248;SDS011;39642;47.556;18.728;2023-04-08T01:25:32;13.07;;;6.12;;
51248;SDS011;39642;47.556;18.728;2023-04-08T01:28:00;12.02;;;5.65;;
51248;SDS011;39642;47.556;18.728;2023-04-08T01:30:39;11.77;;;5.45;;
51248;SDS011;39642;47.556;18.728;2023-04-08T01:33:07;12.15;;;5.87;;
51248;SDS011;39642;47.556;18.728;2023-04-08T01:35:36;12.07;;;5.70;;
51248;SDS011;39642;47.556;18.728;2023-04-08T01:38:02;11.90;;;5.30;;
51248;SDS011;39642;47.556;18.728;2023-04-08T01:40:32;11.85;;;5.43;;
51248;SDS011;39642;47.556;18.728;2023-04-08T01:43:00;12.02;;;5.53;;
51248;SDS011;39642;47.556;18.728;2023-04-08T01:45:27;11.68;;;5.32;;
51248;SDS011;39642;47.556;18.728;2023-04-08T01:47:55;12.37;;;5.62;;
51248;SDS011;39642;47.556;18.728;2023-04-08T01:50:22;12.15;;;5.15;;
51248;SDS011;39642;47.556;18.728;2023-04-08T01:52:51;10.75;;;4.95;;
51248;SDS011;39642;47.556;18.728;2023-04-08T01:55:18;11.30;;;5.18;;
51248;SDS011;39642;47.556;18.728;2023-04-08T01:57:46;11.10;;;5.20;;
51248;SDS011;39642;47.556;18.728;2023-04-08T02:00:17;11.35;;;4.90;;
51248;SDS011;39642;47.556;18.728;2023-04-08T02:02:47;10.85;;;5.00;;
51248;SDS011;39642;47.556;18.728;2023-04-08T02:05:13;11.65;;;5.25;;
51248;SDS011;39642;47.556;18.728;2023-04-08T02:07:39;11.20;;;4.90;;
51248;SDS011;39642;47.556;18.728;2023-04-08T02:10:06;11.30;;;4.93;;
51248;SDS011;39642;47.556;18.728;2023-04-08T02:12:32;11.90;;;5.32;;
51248;SDS011;39642;47.556;18.728;2023-04-08T02:14:59;11.23;;;5.00;;
51248;SDS011;39642;47.556;18.728;2023-04-08T02:20:36;11.38;;;5.05;;
51248;SDS011;39642;47.556;18.728;2023-04-08T02:25:44;11.05;;;5.10;;
51248;SDS011;39642;47.556;18.728;2023-04-08T02:28:11;11.80;;;4.90;;
51248;SDS011;39642;47.556;18.728;2023-04-08T02:30:42;11.23;;;5.15;;
51248;SDS011;39642;47.556;18.728;2023-04-08T02:33:12;11.32;;;5.07;;
51248;SDS011;39642;47.556;18.728;2023-04-08T02:35:39;11.25;;;5.18;;
51248;SDS011;39642;47.556;18.728;2023-04-08T02:38:06;11.23;;;4.80;;
51248;SDS011;39642;47.556;18.728;2023-04-08T02:40:33;11.55;;;5.07;;
51248;SDS011;39642;47.556;18.728;2023-04-08T02:42:59;10.60;;;4.70;;
51248;SDS011;39642;47.556;18.728;2023-04-08T02:45:29;11.30;;;4.75;;
51248;SDS011;39642;47.556;18.728;2023-04-08T02:48:00;12.37;;;5.25;;
51248;SDS011;39642;47.556;18.728;2023-04-08T02:50:26;11.18;;;4.80;;
51248;SDS011;39642;47.556;18.728;2023-04-08T02:52:52;10.40;;;4.68;;
51248;SDS011;39642;47.556;18.728;2023-04-08T02:55:18;10.45;;;4.85;;
51248;SDS011;39642;47.556;18.728;2023-04-08T02:57:45;11.93;;;4.60;;
51248;SDS011;39642;47.556;18.728;2023-04-08T03:00:12;10.10;;;4.32;;
51248;SDS011;39642;47.556;18.728;2023-04-08T03:02:38;10.70;;;4.70;;
51248;SDS011;39642;47.556;18.728;2023-04-08T03:05:04;11.32;;;4.60;;
51248;SDS011;39642;47.556;18.728;2023-04-08T03:07:31;10.70;;;4.32;;
51248;SDS011;39642;47.556;18.728;2023-04-08T03:09:57;10.30;;;4.25;;
51248;SDS011;39642;47.556;18.728;2023-04-08T03:12:23;10.80;;;4.32;;
51248;SDS011;39642;47.556;18.728;2023-04-08T03:14:49;10.20;;;4.37;;
51248;SDS011;39642;47.556;18.728;2023-04-08T03:17:15;10.30;;;4.40;;
51248;SDS011;39642;47.556;18.728;2023-04-08T03:19:41;10.48;;;4.72;;
51248;SDS011;39642;47.556;18.728;2023-04-08T03:22:07;10.70;;;4.47;;
51248;SDS011;39642;47.556;18.728;2023-04-08T03:24:34;10.63;;;4.37;;
51248;SDS011;39642;47.556;18.728;2023-04-08T03:27:01;10.23;;;4.30;;
51248;SDS011;39642;47.556;18.728;2023-04-08T03:29:27;10.57;;;4.40;;
51248;SDS011;39642;47.556;18.728;2023-04-08T03:31:52;9.88;;;4.40;;
51248;SDS011;39642;47.556;18.728;2023-04-08T03:34:18;10.05;;;4.28;;
51248;SDS011;39642;47.556;18.728;2023-04-08T03:36:44;10.50;;;4.40;;
51248;SDS011;39642;47.556;18.728;2023-04-08T03:39:10;10.45;;;3.90;;
51248;SDS011;39642;47.556;18.728;2023-04-08T03:41:36;10.32;;;4.18;;
51248;SDS011;39642;47.556;18.728;2023-04-08T03:44:02;10.43;;;4.20;;
51248;SDS011;39642;47.556;18.728;2023-04-08T03:46:28;9.77;;;4.12;;
51248;SDS011;39642;47.556;18.728;2023-04-08T03:48:54;10.75;;;4.57;;
51248;SDS011;39642;47.556;18.728;2023-04-08T03:51:20;10.95;;;4.50;;
51248;SDS011;39642;47.556;18.728;2023-04-08T03:53:46;10.35;;;4.12;;
51248;SDS011;39642;47.556;18.728;2023-04-08T03:56:13;10.75;;;4.57;;
51248;SDS011;39642;47.556;18.728;2023-04-08T03:58:40;10.57;;;4.72;;
51248;SDS011;39642;47.556;18.728;2023-04-08T04:01:06;9.55;;;3.87;;
51248;SDS011;39642;47.556;18.728;2023-04-08T04:03:32;10.60;;;4.30;;
51248;SDS011;39642;47.556;18.728;2023-04-08T04:05:58;10.50;;;4.40;;
51248;SDS011;39642;47.556;18.728;2023-04-08T04:08:24;10.52;;;4.30;;
51248;SDS011;39642;47.556;18.728;2023-04-08T04:10:50;10.95;;;4.43;;
51248;SDS011;39642;47.556;18.728;2023-04-08T04:13:16;11.15;;;4.12;;
51248;SDS011;39642;47.556;18.728;2023-04-08T04:15:44;10.07;;;4.10;;
51248;SDS011;39642;47.556;18.728;2023-04-08T04:18:10;10.30;;;4.28;;
51248;SDS011;39642;47.556;18.728;2023-04-08T04:20:38;10.75;;;4.40;;
51248;SDS011;39642;47.556;18.728;2023-04-08T04:23:05;11.05;;;4.00;;
51248;SDS011;39642;47.556;18.728;2023-04-08T04:25:31;9.75;;;4.20;;
51248;SDS011;39642;47.556;18.728;2023-04-08T04:27:57;10.18;;;4.12;;
51248;SDS011;39642;47.556;18.728;2023-04-08T04:30:23;10.23;;;4.20;;
51248;SDS011;39642;47.556;18.728;2023-04-08T04:32:49;9.85;;;4.10;;
51248;SDS011;39642;47.556;18.728;2023-04-08T04:35:15;10.35;;;4.22;;
51248;SDS011;39642;47.556;18.728;2023-04-08T04:37:41;10.00;;;3.97;;
51248;SDS011;39642;47.556;18.728;2023-04-08T04:40:07;9.98;;;3.70;;
51248;SDS011;39642;47.556;18.728;2023-04-08T04:42:33;10.18;;;3.90;;
51248;SDS011;39642;47.556;18.728;2023-04-08T04:44:59;10.50;;;4.10;;
51248;SDS011;39642;47.556;18.728;2023-04-08T04:47:25;10.05;;;4.00;;
51248;SDS011;39642;47.556;18.728;2023-04-08T04:49:51;9.40;;;3.78;;
51248;SDS011;39642;47.556;18.728;2023-04-08T04:52:17;10.02;;;4.05;;
51248;SDS011;39642;47.556;18.728;2023-04-08T04:54:42;9.80;;;4.05;;
51248;SDS011;39642;47.556;18.728;2023-04-08T04:57:08;10.45;;;4.00;;
51248;SDS011;39642;47.556;18.728;2023-04-08T04:59:35;10.55;;;4.10;;
51248;SDS011;39642;47.556;18.728;2023-04-08T05:02:02;9.65;;;3.90;;
51248;SDS011;39642;47.556;18.728;2023-04-08T05:04:28;10.00;;;4.00;;
51248;SDS011;39642;47.556;18.728;2023-04-08T05:06:54;10.38;;;4.28;;
51248;SDS011;39642;47.556;18.728;2023-04-08T05:09:20;10.07;;;4.10;;
51248;SDS011;39642;47.556;18.728;2023-04-08T05:11:46;9.40;;;3.90;;
51248;SDS011;39642;47.556;18.728;2023-04-08T05:14:11;9.80;;;4.18;;
51248;SDS011;39642;47.556;18.728;2023-04-08T05:16:37;10.10;;;4.20;;
51248;SDS011;39642;47.556;18.728;2023-04-08T05:19:03;10.27;;;4.07;;
51248;SDS011;39642;47.556;18.728;2023-04-08T05:21:29;9.50;;;4.05;;
51248;SDS011;39642;47.556;18.728;2023-04-08T05:23:57;10.25;;;4.10;;
51248;SDS011;39642;47.556;18.728;2023-04-08T05:26:23;10.07;;;4.03;;
51248;SDS011;39642;47.556;18.728;2023-04-08T05:28:49;10.30;;;4.15;;
51248;SDS011;39642;47.556;18.728;2023-04-08T05:31:16;10.05;;;3.85;;
51248;SDS011;39642;47.556;18.728;2023-04-08T05:33:45;9.27;;;3.92;;
51248;SDS011;39642;47.556;18.728;2023-04-08T05:36:12;9.48;;;4.12;;
51248;SDS011;39642;47.556;18.728;2023-04-08T05:38:38;9.82;;;4.00;;
51248;SDS011;39642;47.556;18.728;2023-04-08T05:41:05;10.68;;;4.20;;
51248;SDS011;39642;47.556;18.728;2023-04-08T05:43:34;10.43;;;4.00;;
51248;SDS011;39642;47.556;18.728;2023-04-08T05:46:07;10.25;;;4.30;;
51248;SDS011;39642;47.556;18.728;2023-04-08T05:48:34;10.07;;;4.15;;
51248;SDS011;39642;47.556;18.728;2023-04-08T05:51:00;9.52;;;4.10;;
51248;SDS011;39642;47.556;18.728;2023-04-08T05:53:26;9.10;;;3.70;;
51248;SDS011;39642;47.556;18.728;2023-04-08T05:55:52;10.23;;;4.10;;
51248;SDS011;39642;47.556;18.728;2023-04-08T05:58:18;10.05;;;4.03;;
51248;SDS011;39642;47.556;18.728;2023-04-08T06:00:44;11.10;;;4.18;;
51248;SDS011;39642;47.556;18.728;2023-04-08T06:03:10;9.85;;;3.90;;
51248;SDS011;39642;47.556;18.728;2023-04-08T06:05:36;9.52;;;3.97;;
51248;SDS011;39642;47.556;18.728;2023-04-08T06:08:02;10.23;;;4.05;;
51248;SDS011;39642;47.556;18.728;2023-04-08T06:10:27;10.23;;;4.20;;
51248;SDS011;39642;47.556;18.728;2023-04-08T06:12:53;10.30;;;4.10;;
51248;SDS011;39642;47.556;18.728;2023-04-08T06:15:19;10.38;;;4.43;;
51248;SDS011;39642;47.556;18.728;2023-04-08T06:17:45;10.75;;;3.87;;
51248;SDS011;39642;47.556;18.728;2023-04-08T06:20:11;11.30;;;4.20;;
51248;SDS011;39642;47.556;18.728;2023-04-08T06:22:37;10.02;;;4.03;;
51248;SDS011;39642;47.556;18.728;2023-04-08T06:25:03;9.95;;;3.90;;
51248;SDS011;39642;47.556;18.728;2023-04-08T06:27:29;10.30;;;4.22;;
51248;SDS011;39642;47.556;18.728;2023-04-08T06:29:55;10.07;;;4.07;;
51248;SDS011;39642;47.556;18.728;2023-04-08T06:32:21;9.52;;;3.75;;
51248;SDS011;39642;47.556;18.728;2023-04-08T06:34:47;9.93;;;3.62;;
51248;SDS011;39642;47.556;18.728;2023-04-08T06:37:13;9.52;;;3.80;;
51248;SDS011;39642;47.556;18.728;2023-04-08T06:39:39;9.93;;;3.83;;
51248;SDS011;39642;47.556;18.728;2023-04-08T06:42:05;9.25;;;3.75;;
51248;SDS011;39642;47.556;18.728;2023-04-08T06:44:31;9.80;;;3.90;;
51248;SDS011;39642;47.556;18.728;2023-04-08T06:46:57;9.45;;;3.85;;
51248;SDS011;39642;47.556;18.728;2023-04-08T06:49:23;10.13;;;3.78;;
51248;SDS011;39642;47.556;18.728;2023-04-08T06:51:51;9.80;;;4.05;;
51248;SDS011;39642;47.556;18.728;2023-04-08T06:54:17;10.23;;;4.20;;
51248;SDS011;39642;47.556;18.728;2023-04-08T06:56:43;8.75;;;3.85;;
51248;SDS011;39642;47.556;18.728;2023-04-08T06:59:09;9.50;;;3.90;;
51248;SDS011;39642;47.556;18.728;2023-04-08T07:01:35;9.77;;;3.95;;
51248;SDS011;39642;47.556;18.728;2023-04-08T07:04:00;9.90;;;4.12;;
51248;SDS011;39642;47.556;18.728;2023-04-08T07:06:26;11.18;;;4.72;;
51248;SDS011;39642;47.556;18.728;2023-04-08T07:08:52;9.07;;;3.95;;
51248;SDS011;39642;47.556;18.728;2023-04-08T07:11:18;9.75;;;3.87;;
51248;SDS011;39642;47.556;18.728;2023-04-08T07:13:44;9.55;;;3.70;;
51248;SDS011;39642;47.556;18.728;2023-04-08T07:16:10;8.80;;;3.45;;
51248;SDS011;39642;47.556;18.728;2023-04-08T07:18:36;9.52;;;3.65;;
51248;SDS011;39642;47.556;18.728;2023-04-08T07:21:02;9.23;;;3.60;;
51248;SDS011;39642;47.556;18.728;2023-04-08T07:23:28;9.25;;;3.50;;
51248;SDS011;39642;47.556;18.728;2023-04-08T07:25:54;9.57;;;3.75;;
51248;SDS011;39642;47.556;18.728;2023-04-08T07:28:20;9.50;;;3.80;;
51248;SDS011;39642;47.556;18.728;2023-04-08T07:30:46;9.68;;;3.90;;
51248;SDS011;39642;47.556;18.728;2023-04-08T07:33:12;9.85;;;3.67;;
51248;SDS011;39642;47.556;18.728;2023-04-08T07:35:38;9.55;;;3.78;;
51248;SDS011;39642;47.556;18.728;2023-04-08T07:38:04;9.23;;;3.62;;
51248;SDS011;39642;47.556;18.728;2023-04-08T07:40:35;9.45;;;3.55;;
51248;SDS011;39642;47.556;18.728;2023-04-08T07:43:01;9.43;;;3.60;;
51248;SDS011;39642;47.556;18.728;2023-04-08T07:45:26;10.00;;;3.80;;
51248;SDS011;39642;47.556;18.728;2023-04-08T07:47:52;9.95;;;4.15;;
51248;SDS011;39642;47.556;18.728;2023-04-08T07:50:18;9.55;;;3.80;;
51248;SDS011;39642;47.556;18.728;2023-04-08T07:52:44;10.18;;;4.03;;
51248;SDS011;39642;47.556;18.728;2023-04-08T07:55:10;9.68;;;3.72;;
51248;SDS011;39642;47.556;18.728;2023-04-08T07:57:36;10.30;;;4.37;;
51248;SDS011;39642;47.556;18.728;2023-04-08T08:00:02;10.38;;;4.15;;
51248;SDS011;39642;47.556;18.728;2023-04-08T08:02:29;10.55;;;3.87;;
51248;SDS011;39642;47.556;18.728;2023-04-08T08:04:55;10.20;;;4.25;;
51248;SDS011;39642;47.556;18.728;2023-04-08T08:07:21;10.93;;;4.03;;
51248;SDS011;39642;47.556;18.728;2023-04-08T08:09:47;10.23;;;4.05;;
51248;SDS011;39642;47.556;18.728;2023-04-08T08:12:13;9.57;;;3.90;;
51248;SDS011;39642;47.556;18.728;2023-04-08T08:14:39;9.50;;;3.80;;
51248;SDS011;39642;47.556;18.728;2023-04-08T08:17:05;10.10;;;3.90;;
51248;SDS011;39642;47.556;18.728;2023-04-08T08:19:31;9.80;;;3.78;;
51248;SDS011;39642;47.556;18.728;2023-04-08T08:21:56;9.10;;;3.60;;
51248;SDS011;39642;47.556;18.728;2023-04-08T08:24:22;9.70;;;3.80;;
51248;SDS011;39642;47.556;18.728;2023-04-08T08:26:48;10.05;;;3.87;;
51248;SDS011;39642;47.556;18.728;2023-04-08T08:29:14;9.38;;;3.62;;
51248;SDS011;39642;47.556;18.728;2023-04-08T08:31:40;9.82;;;4.00;;
51248;SDS011;39642;47.556;18.728;2023-04-08T08:34:06;10.00;;;3.87;;
51248;SDS011;39642;47.556;18.728;2023-04-08T08:36:32;10.00;;;3.78;;
51248;SDS011;39642;47.556;18.728;2023-04-08T08:38:58;10.60;;;4.07;;
51248;SDS011;39642;47.556;18.728;2023-04-08T08:41:24;10.45;;;4.05;;
51248;SDS011;39642;47.556;18.728;2023-04-08T08:43:50;10.27;;;4.20;;
51248;SDS011;39642;47.556;18.728;2023-04-08T08:46:17;9.90;;;3.80;;
51248;SDS011;39642;47.556;18.728;2023-04-08T08:48:43;9.85;;;3.83;;
51248;SDS011;39642;47.556;18.728;2023-04-08T08:51:10;10.13;;;4.20;;
51248;SDS011;39642;47.556;18.728;2023-04-08T08:53:37;10.60;;;4.10;;
51248;SDS011;39642;47.556;18.728;2023-04-08T08:56:03;9.48;;;3.90;;
51248;SDS011;39642;47.556;18.728;2023-04-08T08:58:33;9.60;;;3.45;;
51248;SDS011;39642;47.556;18.728;2023-04-08T09:00:59;9.52;;;3.58;;
51248;SDS011;39642;47.556;18.728;2023-04-08T09:03:26;9.15;;;3.40;;
51248;SDS011;39642;47.556;18.728;2023-04-08T09:05:56;9.77;;;3.60;;
51248;SDS011;39642;47.556;18.728;2023-04-08T09:11:10;10.53;;;3.60;;
51248;SDS011;39642;47.556;18.728;2023-04-08T09:13:44;9.68;;;3.30;;
51248;SDS011;39642;47.556;18.728;2023-04-08T09:16:11;9.77;;;3.25;;
51248;SDS011;39642;47.556;18.728;2023-04-08T09:18:39;9.60;;;3.55;;
51248;SDS011;39642;47.556;18.728;2023-04-08T09:21:09;9.68;;;4.00;;
51248;SDS011;39642;47.556;18.728;2023-04-08T09:23:46;10.38;;;3.55;;
51248;SDS011;39642;47.556;18.728;2023-04-08T09:26:17;8.73;;;3.25;;
51248;SDS011;39642;47.556;18.728;2023-04-08T09:28:56;9.43;;;3.05;;
51248;SDS011;39642;47.556;18.728;2023-04-08T09:31:24;9.30;;;3.40;;
51248;SDS011;39642;47.556;18.728;2023-04-08T09:33:55;9.70;;;3.40;;
51248;SDS011;39642;47.556;18.728;2023-04-08T09:36:23;9.82;;;3.45;;
51248;SDS011;39642;47.556;18.728;2023-04-08T09:38:51;9.18;;;3.40;;
51248;SDS011;39642;47.556;18.728;2023-04-08T09:41:17;10.07;;;3.62;;
51248;SDS011;39642;47.556;18.728;2023-04-08T09:43:48;8.07;;;2.92;;
51248;SDS011;39642;47.556;18.728;2023-04-08T09:46:17;9.30;;;3.42;;
51248;SDS011;39642;47.556;18.728;2023-04-08T09:51:53;9.15;;;3.40;;
51248;SDS011;39642;47.556;18.728;2023-04-08T09:54:22;9.25;;;3.15;;
51248;SDS011;39642;47.556;18.728;2023-04-08T09:57:00;9.35;;;3.50;;
51248;SDS011;39642;47.556;18.728;2023-04-08T09:59:32;9.50;;;3.60;;
51248;SDS011;39642;47.556;18.728;2023-04-08T10:02:08;9.82;;;3.60;;
51248;SDS011;39642;47.556;18.728;2023-04-08T10:04:37;8.63;;;3.10;;
51248;SDS011;39642;47.556;18.728;2023-04-08T10:07:06;9.38;;;3.45;;
51248;SDS011;39642;47.556;18.728;2023-04-08T10:09:33;10.13;;;3.35;;
51248;SDS011;39642;47.556;18.728;2023-04-08T10:12:00;9.65;;;3.30;;
51248;SDS011;39642;47.556;18.728;2023-04-08T10:14:28;9.02;;;3.33;;
51248;SDS011;39642;47.556;18.728;2023-04-08T10:19:50;8.57;;;2.95;;
51248;SDS011;39642;47.556;18.728;2023-04-08T10:27:42;8.80;;;3.35;;
51248;SDS011;39642;47.556;18.728;2023-04-08T10:32:56;9.35;;;3.22;;
51248;SDS011;39642;47.556;18.728;2023-04-08T10:36:09;9.05;;;3.22;;
51248;SDS011;39642;47.556;18.728;2023-04-08T10:38:20;8.68;;;3.20;;
51248;SDS011;39642;47.556;18.728;2023-04-08T10:40:46;9.68;;;3.30;;
51248;SDS011;39642;47.556;18.728;2023-04-08T10:43:13;9.23;;;3.35;;
51248;SDS011;39642;47.556;18.728;2023-04-08T10:45:40;8.48;;;2.90;;
51248;SDS011;39642;47.556;18.728;2023-04-08T10:48:11;8.95;;;3.30;;
51248;SDS011;39642;47.556;18.728;2023-04-08T10:50:56;9.75;;;3.60;;
51248;SDS011;39642;47.556;18.728;2023-04-08T10:53:26;9.50;;;3.22;;
51248;SDS011;39642;47.556;18.728;2023-04-08T10:58:33;9.23;;;3.35;;
51248;SDS011;39642;47.556;18.728;2023-04-08T11:01:04;9.68;;;3.50;;
51248;SDS011;39642;47.556;18.728;2023-04-08T11:03:34;8.90;;;3.35;;
51248;SDS011;39642;47.556;18.728;2023-04-08T11:06:01;9.15;;;3.20;;
51248;SDS011;39642;47.556;18.728;2023-04-08T11:08:28;10.18;;;3.60;;
51248;SDS011;39642;47.556;18.728;2023-04-08T11:10:54;9.10;;;3.33;;
51248;SDS011;39642;47.556;18.728;2023-04-08T11:13:21;9.73;;;3.50;;
51248;SDS011;39642;47.556;18.728;2023-04-08T11:15:48;8.82;;;3.20;;
51248;SDS011;39642;47.556;18.728;2023-04-08T11:18:15;9.00;;;3.20;;
51248;SDS011;39642;47.556;18.728;2023-04-08T11:20:42;10.23;;;3.47;;
51248;SDS011;39642;47.556;18.728;2023-04-08T11:23:12;9.48;;;3.70;;
51248;SDS011;39642;47.556;18.728;2023-04-08T11:25:39;8.80;;;3.10;;
51248;SDS011;39642;47.556;18.728;2023-04-08T11:28:10;9.30;;;3.42;;
51248;SDS011;39642;47.556;18.728;2023-04-08T11:30:37;10.10;;;3.30;;
51248;SDS011;39642;47.556;18.728;2023-04-08T11:33:06;9.05;;;3.45;;
51248;SDS011;39642;47.556;18.728;2023-04-08T11:35:32;9.02;;;3.15;;
51248;SDS011;39642;47.556;18.728;2023-04-08T11:37:59;8.57;;;3.00;;
51248;SDS011;39642;47.556;18.728;2023-04-08T11:40:25;9.20;;;3.17;;
51248;SDS011;39642;47.556;18.728;2023-04-08T11:42:51;9.02;;;3.10;;
51248;SDS011;39642;47.556;18.728;2023-04-08T11:45:18;9.38;;;3.25;;
51248;SDS011;39642;47.556;18.728;2023-04-08T11:47:46;9.05;;;3.37;;
51248;SDS011;39642;47.556;18.728;2023-04-08T11:50:21;8.75;;;3.10;;
51248;SDS011;39642;47.556;18.728;2023-04-08T11:52:49;10.25;;;3.40;;
51248;SDS011;39642;47.556;18.728;2023-04-08T11:57:48;9.23;;;3.20;;
51248;SDS011;39642;47.556;18.728;2023-04-08T12:00:14;10.27;;;3.42;;
51248;SDS011;39642;47.556;18.728;2023-04-08T12:02:40;8.57;;;3.15;;
51248;SDS011;39642;47.556;18.728;2023-04-08T12:05:06;8.88;;;3.37;;
51248;SDS011;39642;47.556;18.728;2023-04-08T12:07:32;9.50;;;3.40;;
51248;SDS011;39642;47.556;18.728;2023-04-08T12:09:58;9.68;;;3.65;;
51248;SDS011;39642;47.556;18.728;2023-04-08T12:12:24;9.75;;;3.70;;
51248;SDS011;39642;47.556;18.728;2023-04-08T12:14:50;9.77;;;3.67;;
51248;SDS011;39642;47.556;18.728;2023-04-08T12:17:16;9.77;;;3.70;;
51248;SDS011;39642;47.556;18.728;2023-04-08T12:19:42;9.85;;;3.92;;
51248;SDS011;39642;47.556;18.728;2023-04-08T12:22:08;8.95;;;3.50;;
51248;SDS011;39642;47.556;18.728;2023-04-08T12:24:33;9.40;;;3.50;;
51248;SDS011;39642;47.556;18.728;2023-04-08T12:26:59;9.50;;;3.62;;
51248;SDS011;39642;47.556;18.728;2023-04-08T12:29:26;9.88;;;3.90;;
51248;SDS011;39642;47.556;18.728;2023-04-08T12:31:52;9.10;;;3.53;;
51248;SDS011;39642;47.556;18.728;2023-04-08T12:34:18;9.30;;;3.53;;
51248;SDS011;39642;47.556;18.728;2023-04-08T12:36:44;9.40;;;3.70;;
51248;SDS011;39642;47.556;18.728;2023-04-08T12:39:10;8.82;;;3.55;;
51248;SDS011;39642;47.556;18.728;2023-04-08T12:41:36;10.18;;;3.80;;
51248;SDS011;39642;47.556;18.728;2023-04-08T12:44:02;8.90;;;3.30;;
51248;SDS011;39642;47.556;18.728;2023-04-08T12:46:28;10.68;;;3.62;;
51248;SDS011;39642;47.556;18.728;2023-04-08T12:48:54;9.70;;;3.75;;
51248;SDS011;39642;47.556;18.728;2023-04-08T12:51:20;9.75;;;3.60;;
51248;SDS011;39642;47.556;18.728;2023-04-08T12:53:46;9.85;;;3.70;;
51248;SDS011;39642;47.556;18.728;2023-04-08T12:56:11;9.75;;;3.70;;
51248;SDS011;39642;47.556;18.728;2023-04-08T12:58:37;10.32;;;3.67;;
51248;SDS011;39642;47.556;18.728;2023-04-08T13:01:03;9.85;;;3.78;;
51248;SDS011;39642;47.556;18.728;2023-04-08T13:03:29;9.15;;;3.65;;
51248;SDS011;39642;47.556;18.728;2023-04-08T13:05:56;9.55;;;3.70;;
51248;SDS011;39642;47.556;18.728;2023-04-08T13:08:23;10.05;;;3.45;;
51248;SDS011;39642;47.556;18.728;2023-04-08T13:10:49;8.88;;;3.33;;
51248;SDS011;39642;47.556;18.728;2023-04-08T13:13:15;9.20;;;3.50;;
51248;SDS011;39642;47.556;18.728;2023-04-08T13:15:41;9.88;;;3.55;;
51248;SDS011;39642;47.556;18.728;2023-04-08T13:18:08;9.27;;;3.75;;
51248;SDS011;39642;47.556;18.728;2023-04-08T13:20:34;9.20;;;3.20;;
51248;SDS011;39642;47.556;18.728;2023-04-08T13:23:01;10.02;;;3.67;;
51248;SDS011;39642;47.556;18.728;2023-04-08T13:25:27;8.77;;;3.40;;
51248;SDS011;39642;47.556;18.728;2023-04-08T13:27:53;9.90;;;3.80;;
51248;SDS011;39642;47.556;18.728;2023-04-08T13:30:18;8.80;;;3.30;;
51248;SDS011;39642;47.556;18.728;2023-04-08T13:32:44;8.50;;;3.30;;
51248;SDS011;39642;47.556;18.728;2023-04-08T13:35:10;9.25;;;3.28;;
51248;SDS011;39642;47.556;18.728;2023-04-08T13:37:36;9.90;;;3.33;;
51248;SDS011;39642;47.556;18.728;2023-04-08T13:40:02;9.52;;;3.62;;
51248;SDS011;39642;47.556;18.728;2023-04-08T13:42:28;8.90;;;3.58;;
51248;SDS011;39642;47.556;18.728;2023-04-08T13:44:56;9.75;;;3.50;;
51248;SDS011;39642;47.556;18.728;2023-04-08T13:47:22;9.75;;;3.67;;
51248;SDS011;39642;47.556;18.728;2023-04-08T13:49:48;9.25;;;3.30;;
51248;SDS011;39642;47.556;18.728;2023-04-08T13:52:14;9.60;;;3.58;;
51248;SDS011;39642;47.556;18.728;2023-04-08T13:54:40;9.40;;;3.55;;
51248;SDS011;39642;47.556;18.728;2023-04-08T13:57:06;9.32;;;3.20;;
51248;SDS011;39642;47.556;18.728;2023-04-08T13:59:32;9.82;;;3.37;;
51248;SDS011;39642;47.556;18.728;2023-04-08T14:01:58;10.55;;;3.78;;
51248;SDS011;39642;47.556;18.728;2023-04-08T14:04:23;9.43;;;3.42;;
51248;SDS011;39642;47.556;18.728;2023-04-08T14:06:49;9.45;;;3.67;;
51248;SDS011;39642;47.556;18.728;2023-04-08T14:09:18;10.30;;;3.80;;
51248;SDS011;39642;47.556;18.728;2023-04-08T14:11:44;8.88;;;3.30;;
51248;SDS011;39642;47.556;18.728;2023-04-08T14:14:10;10.02;;;3.83;;
51248;SDS011;39642;47.556;18.728;2023-04-08T14:16:36;9.43;;;3.70;;
51248;SDS011;39642;47.556;18.728;2023-04-08T14:19:02;8.73;;;3.37;;
51248;SDS011;39642;47.556;18.728;2023-04-08T14:21:29;9.77;;;3.35;;
51248;SDS011;39642;47.556;18.728;2023-04-08T14:23:59;9.52;;;3.67;;
51248;SDS011;39642;47.556;18.728;2023-04-08T14:26:25;9.55;;;3.70;;
51248;SDS011;39642;47.556;18.728;2023-04-08T14:28:50;9.52;;;3.90;;
51248;SDS011;39642;47.556;18.728;2023-04-08T14:31:16;9.82;;;3.70;;
51248;SDS011;39642;47.556;18.728;2023-04-08T14:33:42;9.73;;;4.10;;
51248;SDS011;39642;47.556;18.728;2023-04-08T14:36:08;9.23;;;3.60;;
51248;SDS011;39642;47.556;18.728;2023-04-08T14:38:35;9.65;;;3.62;;
51248;SDS011;39642;47.556;18.728;2023-04-08T14:41:01;9.63;;;3.58;;
51248;SDS011;39642;47.556;18.728;2023-04-08T14:43:27;9.85;;;3.80;;
51248;SDS011;39642;47.556;18.728;2023-04-08T14:45:53;9.80;;;3.80;;
51248;SDS011;39642;47.556;18.728;2023-04-08T14:48:18;9.95;;;3.78;;
51248;SDS011;39642;47.556;18.728;2023-04-08T14:50:44;9.63;;;3.60;;
51248;SDS011;39642;47.556;18.728;2023-04-08T14:53:10;10.30;;;3.90;;
51248;SDS011;39642;47.556;18.728;2023-04-08T14:55:36;9.80;;;3.90;;
51248;SDS011;39642;47.556;18.728;2023-04-08T14:58:03;9.25;;;3.70;;